createdAt,value
2022-08-03T00:00:01.014Z,0.00
2022-08-03T00:01:00.466Z,0.00
2022-08-03T00:02:00.404Z,0.00
2022-08-03T00:03:00.586Z,0.00
2022-08-03T00:04:01.185Z,0.00
2022-08-03T00:05:00.337Z,0.00
2022-08-03T00:06:03.929Z,0.00
2022-08-03T00:07:00.334Z,0.00
2022-08-03T00:08:00.326Z,0.00
2022-08-03T00:09:00.303Z,0.00
2022-08-03T00:10:00.329Z,0.00
2022-08-03T00:11:00.326Z,0.00
2022-08-03T00:12:00.506Z,0.00
2022-08-03T00:13:00.400Z,0.00
2022-08-03T00:14:00.286Z,0.00
2022-08-03T00:15:00.637Z,0.00
2022-08-03T00:16:00.364Z,0.00
2022-08-03T00:17:00.265Z,0.00
2022-08-03T00:18:00.295Z,0.00
2022-08-03T00:19:00.763Z,0.00
2022-08-03T00:20:00.243Z,0.00
2022-08-03T00:21:00.368Z,0.00
2022-08-03T00:22:00.234Z,0.00
2022-08-03T00:23:00.245Z,0.00
2022-08-03T00:24:00.206Z,0.00
2022-08-03T00:25:00.224Z,0.00
2022-08-03T00:26:00.185Z,0.00
2022-08-03T00:27:00.191Z,0.00
2022-08-03T00:28:02.143Z,0.00
2022-08-03T00:29:00.334Z,0.00
2022-08-03T00:30:00.641Z,0.00
2022-08-03T00:31:00.183Z,0.00
2022-08-03T00:32:00.734Z,0.00
2022-08-03T00:33:00.516Z,0.00
2022-08-03T00:34:03.345Z,0.00
2022-08-03T00:35:00.410Z,0.00
2022-08-03T00:36:00.161Z,0.00
2022-08-03T00:37:00.610Z,0.00
2022-08-03T00:38:00.553Z,0.00
2022-08-03T00:39:00.152Z,0.00
2022-08-03T00:40:00.900Z,0.00
2022-08-03T00:41:00.354Z,0.00
2022-08-03T00:42:00.102Z,0.00
2022-08-03T00:43:00.107Z,0.00
2022-08-03T00:44:00.076Z,0.00
2022-08-03T00:45:00.502Z,0.00
2022-08-03T00:46:00.081Z,0.00
2022-08-03T00:47:00.059Z,0.00
2022-08-03T00:48:00.071Z,0.00
2022-08-03T00:49:00.073Z,0.00
2022-08-03T00:50:00.793Z,0.00
2022-08-03T00:51:00.774Z,0.00
2022-08-03T00:52:00.011Z,0.00
2022-08-03T00:53:00.013Z,0.00
2022-08-03T00:53:59.993Z,0.00
2022-08-03T00:55:00.552Z,0.00
2022-08-03T00:56:00.100Z,0.00
2022-08-03T00:57:00.571Z,0.00
2022-08-03T00:57:59.983Z,0.00
2022-08-03T00:59:00.361Z,0.00
2022-08-03T01:00:00.903Z,0.00
2022-08-03T01:01:00.161Z,0.00
2022-08-03T01:02:00.059Z,0.00
2022-08-03T01:02:59.942Z,0.00
2022-08-03T01:03:59.929Z,0.00
2022-08-03T01:04:59.920Z,0.00
2022-08-03T01:06:00.085Z,0.00
2022-08-03T01:07:00.115Z,0.00
2022-08-03T01:07:59.926Z,0.00
2022-08-03T01:08:59.888Z,0.00
2022-08-03T01:09:59.932Z,0.00
2022-08-03T01:10:59.901Z,0.00
2022-08-03T01:12:01.740Z,0.00
2022-08-03T01:12:59.880Z,0.00
2022-08-03T01:14:04.175Z,0.00
2022-08-03T01:14:59.852Z,0.00
2022-08-03T01:16:00.340Z,0.00
2022-08-03T01:16:59.920Z,0.00
2022-08-03T01:17:59.850Z,0.00
2022-08-03T01:18:59.822Z,0.00
2022-08-03T01:20:00.112Z,0.00
2022-08-03T01:21:00.582Z,0.00
2022-08-03T01:22:00.680Z,0.00
2022-08-03T01:23:00.635Z,0.00
2022-08-03T01:23:59.821Z,0.00
2022-08-03T01:25:00.125Z,0.00
2022-08-03T01:25:59.770Z,0.00
2022-08-03T01:26:59.800Z,0.00
2022-08-03T01:28:00.331Z,0.00
2022-08-03T01:28:59.757Z,0.00
2022-08-03T01:29:59.758Z,0.00
2022-08-03T01:30:59.767Z,0.00
2022-08-03T01:32:58.245Z,0.00
2022-08-03T01:33:02.254Z,0.00
2022-08-03T01:33:59.943Z,0.00
2022-08-03T01:34:59.812Z,0.00
2022-08-03T01:36:00.060Z,0.00
2022-08-03T01:37:00.550Z,0.00
2022-08-03T01:37:59.730Z,0.00
2022-08-03T01:39:00.568Z,0.00
2022-08-03T01:39:59.771Z,0.00
2022-08-03T01:40:59.700Z,0.00
2022-08-03T01:41:59.673Z,0.00
2022-08-03T01:42:59.879Z,0.00
2022-08-03T01:44:29.786Z,0.00
2022-08-03T01:44:59.978Z,0.00
2022-08-03T01:46:00.019Z,0.00
2022-08-03T01:46:59.628Z,0.00
2022-08-03T01:48:00.118Z,0.00
2022-08-03T01:49:00.263Z,0.00
2022-08-03T01:49:59.736Z,0.00
2022-08-03T01:51:00.228Z,0.00
2022-08-03T01:52:04.963Z,0.00
2022-08-03T01:52:59.629Z,0.00
2022-08-03T01:53:59.598Z,0.00
2022-08-03T01:54:59.702Z,0.00
2022-08-03T01:56:00.267Z,0.00
2022-08-03T01:56:59.596Z,0.00
2022-08-03T01:58:05.247Z,0.00
2022-08-03T01:58:59.639Z,0.00
2022-08-03T01:59:59.687Z,0.00
2022-08-03T02:00:59.643Z,0.00
2022-08-03T02:02:15.257Z,0.00
2022-08-03T02:02:59.540Z,0.00
2022-08-03T02:04:01.198Z,0.00
2022-08-03T02:04:59.616Z,0.00
2022-08-03T02:06:55.626Z,0.00
2022-08-03T02:07:02.593Z,0.00
2022-08-03T02:07:59.533Z,0.00
2022-08-03T02:08:59.507Z,0.00
2022-08-03T02:09:59.949Z,0.00
2022-08-03T02:10:59.467Z,0.00
2022-08-03T02:11:59.467Z,0.00
2022-08-03T02:12:59.785Z,0.00
2022-08-03T02:13:59.503Z,0.00
2022-08-03T02:15:00.057Z,0.00
2022-08-03T02:15:59.457Z,0.00
2022-08-03T02:16:59.433Z,0.00
2022-08-03T02:17:59.451Z,0.00
2022-08-03T02:18:59.564Z,0.00
2022-08-03T02:19:59.615Z,0.00
2022-08-03T02:20:59.407Z,0.00
2022-08-03T02:22:01.780Z,0.00
2022-08-03T02:22:59.467Z,0.00
2022-08-03T02:23:59.785Z,0.00
2022-08-03T02:24:59.395Z,0.00
2022-08-03T02:25:59.971Z,0.00
2022-08-03T02:26:59.378Z,0.00
2022-08-03T02:27:59.365Z,0.00
2022-08-03T02:28:59.576Z,0.00
2022-08-03T02:29:59.778Z,0.00
2022-08-03T02:30:59.337Z,0.00
2022-08-03T02:31:59.338Z,0.00
2022-08-03T02:32:59.928Z,0.00
2022-08-03T02:33:59.575Z,0.00
2022-08-03T02:34:59.309Z,0.00
2022-08-03T02:36:00.267Z,0.00
2022-08-03T02:36:59.297Z,0.00
2022-08-03T02:37:59.284Z,0.00
2022-08-03T02:38:59.325Z,0.00
2022-08-03T02:40:00.166Z,0.00
2022-08-03T02:40:59.684Z,0.00
2022-08-03T02:41:59.255Z,0.00
2022-08-03T02:42:59.253Z,0.00
2022-08-03T02:44:06.444Z,0.00
2022-08-03T02:45:00.070Z,0.00
2022-08-03T02:45:59.238Z,0.00
2022-08-03T02:46:59.224Z,0.00
2022-08-03T02:47:59.322Z,0.00
2022-08-03T02:48:59.342Z,0.00
2022-08-03T02:49:59.343Z,0.00
2022-08-03T02:50:59.701Z,0.00
2022-08-03T02:51:59.215Z,0.00
2022-08-03T02:52:59.449Z,0.00
2022-08-03T02:53:59.503Z,0.00
2022-08-03T02:54:59.188Z,0.00
2022-08-03T02:55:59.173Z,0.00
2022-08-03T02:56:59.173Z,0.00
2022-08-03T02:58:01.681Z,0.00
2022-08-03T02:58:59.353Z,0.00
2022-08-03T02:59:59.153Z,0.00
2022-08-03T03:00:59.196Z,0.00
2022-08-03T03:01:59.203Z,0.00
2022-08-03T03:02:59.631Z,0.00
2022-08-03T03:03:59.572Z,0.00
2022-08-03T03:05:54.712Z,0.00
2022-08-03T03:05:59.931Z,0.00
2022-08-03T03:06:59.101Z,0.00
2022-08-03T03:07:59.545Z,0.00
2022-08-03T03:08:59.892Z,0.00
2022-08-03T03:09:59.832Z,0.00
2022-08-03T03:10:59.692Z,0.00
2022-08-03T03:11:59.092Z,0.00
2022-08-03T03:12:59.173Z,0.00
2022-08-03T03:13:59.721Z,0.00
2022-08-03T03:14:59.069Z,0.00
2022-08-03T03:15:59.545Z,0.00
2022-08-03T03:16:59.198Z,0.00
2022-08-03T03:17:59.021Z,0.00
2022-08-03T03:18:59.151Z,0.00
2022-08-03T03:19:59.161Z,0.00
2022-08-03T03:20:59.001Z,0.00
2022-08-03T03:21:58.990Z,0.00
2022-08-03T03:22:59.006Z,0.00
2022-08-03T03:23:59.142Z,0.00
2022-08-03T03:24:59.090Z,0.00
2022-08-03T03:25:58.973Z,0.00
2022-08-03T03:26:58.960Z,0.00
2022-08-03T03:27:59.580Z,0.00
2022-08-03T03:28:59.782Z,0.00
2022-08-03T03:29:58.959Z,0.00
2022-08-03T03:30:58.987Z,0.00
2022-08-03T03:31:58.919Z,0.00
2022-08-03T03:32:58.919Z,0.00
2022-08-03T03:33:58.950Z,0.00
2022-08-03T03:34:59.000Z,0.00
2022-08-03T03:35:58.893Z,0.00
2022-08-03T03:36:58.939Z,0.00
2022-08-03T03:37:59.148Z,0.00
2022-08-03T03:38:59.167Z,0.00
2022-08-03T03:39:59.048Z,0.00
2022-08-03T03:40:58.859Z,0.00
2022-08-03T03:41:58.856Z,0.00
2022-08-03T03:42:58.849Z,0.00
2022-08-03T03:43:59.091Z,0.00
2022-08-03T03:44:59.128Z,0.00
2022-08-03T03:45:58.828Z,0.00
2022-08-03T03:46:58.860Z,0.00
2022-08-03T03:47:59.273Z,5.62
2022-08-03T03:48:58.983Z,5.62
2022-08-03T03:49:58.818Z,5.62
2022-08-03T03:50:58.789Z,5.62
2022-08-03T03:51:58.872Z,5.62
2022-08-03T03:52:59.489Z,5.62
2022-08-03T03:53:59.448Z,5.62
2022-08-03T03:55:01.016Z,5.62
2022-08-03T03:56:02.801Z,11.25
2022-08-03T03:56:58.760Z,11.25
2022-08-03T03:57:58.768Z,11.25
2022-08-03T03:59:00.706Z,11.25
2022-08-03T03:59:58.774Z,11.25
2022-08-03T04:00:58.791Z,11.25
2022-08-03T04:01:59.160Z,16.88
2022-08-03T04:02:58.795Z,16.88
2022-08-03T04:03:58.795Z,16.88
2022-08-03T04:04:58.819Z,16.88
2022-08-03T04:05:58.698Z,16.88
2022-08-03T04:06:59.587Z,16.88
2022-08-03T04:07:59.197Z,22.50
2022-08-03T04:08:58.827Z,22.50
2022-08-03T04:09:59.170Z,22.50
2022-08-03T04:10:58.666Z,22.50
2022-08-03T04:11:58.648Z,22.50
2022-08-03T04:12:58.657Z,22.50
2022-08-03T04:14:01.811Z,22.50
2022-08-03T04:14:58.653Z,22.50
2022-08-03T04:15:58.628Z,28.12
2022-08-03T04:16:58.618Z,28.12
2022-08-03T04:17:58.947Z,28.12
2022-08-03T04:18:59.596Z,28.12
2022-08-03T04:19:58.666Z,28.12
2022-08-03T04:20:59.087Z,28.12
2022-08-03T04:21:58.589Z,28.12
2022-08-03T04:22:58.576Z,33.75
2022-08-03T04:23:59.336Z,33.75
2022-08-03T04:24:59.388Z,33.75
2022-08-03T04:25:58.714Z,33.75
2022-08-03T04:26:58.545Z,33.75
2022-08-03T04:28:29.873Z,33.75
2022-08-03T04:28:58.555Z,33.75
2022-08-03T04:29:58.554Z,39.38
2022-08-03T04:30:58.605Z,39.38
2022-08-03T04:31:58.566Z,39.38
2022-08-03T04:32:58.656Z,39.38
2022-08-03T04:33:58.955Z,45.00
2022-08-03T04:34:58.715Z,45.00
2022-08-03T04:36:02.517Z,45.00
2022-08-03T04:36:58.558Z,45.00
2022-08-03T04:37:58.864Z,45.00
2022-08-03T04:38:58.905Z,50.62
2022-08-03T04:39:58.465Z,50.62
2022-08-03T04:40:58.466Z,50.62
2022-08-03T04:42:08.243Z,50.62
2022-08-03T04:42:58.533Z,56.25
2022-08-03T04:43:58.453Z,56.25
2022-08-03T04:45:01.300Z,56.25
2022-08-03T04:45:58.464Z,61.88
2022-08-03T04:46:58.424Z,61.88
2022-08-03T04:47:58.475Z,61.88
2022-08-03T04:48:58.466Z,61.88
2022-08-03T04:49:58.586Z,61.88
2022-08-03T04:50:58.443Z,67.50
2022-08-03T04:51:58.684Z,67.50
2022-08-03T04:52:58.723Z,67.50
2022-08-03T04:53:58.776Z,67.50
2022-08-03T04:54:58.825Z,73.12
2022-08-03T04:55:58.398Z,78.75
2022-08-03T04:56:58.852Z,78.75
2022-08-03T04:57:58.976Z,78.75
2022-08-03T04:58:58.334Z,78.75
2022-08-03T05:00:02.974Z,78.75
2022-08-03T05:00:58.384Z,78.75
2022-08-03T05:01:58.880Z,78.75
2022-08-03T05:02:58.365Z,78.75
2022-08-03T05:03:58.338Z,84.38
2022-08-03T05:04:58.305Z,90.00
2022-08-03T05:06:01.916Z,84.38
2022-08-03T05:06:58.765Z,84.38
2022-08-03T05:07:58.720Z,84.38
2022-08-03T05:08:58.273Z,90.00
2022-08-03T05:10:03.011Z,95.62
2022-08-03T05:10:59.405Z,95.62
2022-08-03T05:11:58.292Z,95.62
2022-08-03T05:12:58.254Z,101.25
2022-08-03T05:13:58.741Z,106.88
2022-08-03T05:14:58.961Z,106.88
2022-08-03T05:15:58.250Z,95.62
2022-08-03T05:16:58.222Z,101.25
2022-08-03T05:17:58.764Z,112.50
2022-08-03T05:18:58.451Z,106.88
2022-08-03T05:19:58.722Z,106.88
2022-08-03T05:20:58.388Z,112.50
2022-08-03T05:21:58.191Z,106.88
2022-08-03T05:22:58.324Z,106.88
2022-08-03T05:23:58.205Z,106.88
2022-08-03T05:24:58.223Z,106.88
2022-08-03T05:25:58.182Z,106.88
2022-08-03T05:26:58.470Z,101.25
2022-08-03T05:27:58.141Z,106.88
2022-08-03T05:28:58.133Z,101.25
2022-08-03T05:30:30.700Z,112.50
2022-08-03T05:30:58.123Z,112.50
2022-08-03T05:31:58.141Z,112.50
2022-08-03T05:32:58.152Z,118.12
2022-08-03T05:33:58.122Z,118.12
2022-08-03T05:34:58.196Z,123.75
2022-08-03T05:36:03.359Z,118.12
2022-08-03T05:36:58.842Z,118.12
2022-08-03T05:37:58.106Z,118.12
2022-08-03T05:39:02.505Z,123.75
2022-08-03T05:39:58.072Z,118.12
2022-08-03T05:41:20.103Z,129.38
2022-08-03T05:41:58.292Z,129.38
2022-08-03T05:42:58.140Z,129.38
2022-08-03T05:43:58.036Z,123.75
2022-08-03T05:44:58.039Z,118.12
2022-08-03T05:46:11.540Z,118.12
2022-08-03T05:46:58.033Z,135.00
2022-08-03T05:47:58.011Z,135.00
2022-08-03T05:48:58.050Z,135.00
2022-08-03T05:49:58.001Z,140.62
2022-08-03T05:50:57.991Z,135.00
2022-08-03T05:52:00.446Z,140.62
2022-08-03T05:52:57.979Z,140.62
2022-08-03T05:53:57.983Z,140.62
2022-08-03T05:54:57.972Z,140.62
2022-08-03T05:56:03.435Z,146.25
2022-08-03T05:56:58.020Z,146.25
2022-08-03T05:57:57.951Z,146.25
2022-08-03T05:58:57.941Z,135.00
2022-08-03T05:59:58.794Z,146.25
2022-08-03T06:00:58.034Z,135.00
2022-08-03T06:01:58.085Z,140.62
2022-08-03T06:02:57.993Z,146.25
2022-08-03T06:03:57.921Z,140.62
2022-08-03T06:04:57.896Z,135.00
2022-08-03T06:06:00.017Z,146.25
2022-08-03T06:06:58.570Z,140.62
2022-08-03T06:07:58.027Z,135.00
2022-08-03T06:08:57.993Z,129.38
2022-08-03T06:10:36.190Z,135.00
2022-08-03T06:10:57.869Z,129.38
2022-08-03T06:11:57.877Z,135.00
2022-08-03T06:12:57.862Z,140.62
2022-08-03T06:13:57.856Z,151.88
2022-08-03T06:14:57.872Z,157.50
2022-08-03T06:15:57.832Z,157.50
2022-08-03T06:16:57.835Z,151.88
2022-08-03T06:18:01.704Z,157.50
2022-08-03T06:18:57.917Z,151.88
2022-08-03T06:19:57.804Z,157.50
2022-08-03T06:20:57.796Z,157.50
2022-08-03T06:21:57.801Z,157.50
2022-08-03T06:23:01.212Z,163.12
2022-08-03T06:23:58.037Z,157.50
2022-08-03T06:24:58.040Z,157.50
2022-08-03T06:25:58.032Z,163.12
2022-08-03T06:26:57.751Z,163.12
2022-08-03T06:27:57.743Z,168.75
2022-08-03T06:28:57.910Z,168.75
2022-08-03T06:29:57.740Z,168.75
2022-08-03T06:30:57.724Z,168.75
2022-08-03T06:31:58.041Z,168.75
2022-08-03T06:32:57.721Z,168.75
2022-08-03T06:34:34.055Z,168.75
2022-08-03T06:34:57.711Z,168.75
2022-08-03T06:35:57.762Z,163.12
2022-08-03T06:37:01.964Z,163.12
2022-08-03T06:37:57.760Z,163.12
2022-08-03T06:38:57.971Z,163.12
2022-08-03T06:39:58.000Z,163.12
2022-08-03T06:40:57.661Z,157.50
2022-08-03T06:41:57.681Z,157.50
2022-08-03T06:42:57.685Z,163.12
2022-08-03T06:44:03.216Z,157.50
2022-08-03T06:44:57.651Z,157.50
2022-08-03T06:45:57.630Z,157.50
2022-08-03T06:46:57.820Z,157.50
2022-08-03T06:47:57.611Z,157.50
2022-08-03T06:48:57.682Z,157.50
2022-08-03T06:50:12.865Z,151.88
2022-08-03T06:50:57.611Z,157.50
2022-08-03T06:52:03.226Z,163.12
2022-08-03T06:52:57.594Z,168.75
2022-08-03T06:53:57.597Z,168.75
2022-08-03T06:54:57.916Z,168.75
2022-08-03T06:55:57.561Z,168.75
2022-08-03T06:56:57.603Z,168.75
2022-08-03T06:57:59.923Z,168.75
2022-08-03T06:58:57.541Z,168.75
2022-08-03T07:00:08.342Z,174.38
2022-08-03T07:00:57.562Z,174.38
2022-08-03T07:01:57.732Z,174.38
2022-08-03T07:02:58.376Z,174.38
2022-08-03T07:03:57.933Z,174.38
2022-08-03T07:04:57.491Z,174.38
2022-08-03T07:05:57.500Z,174.38
2022-08-03T07:06:57.492Z,174.38
2022-08-03T07:07:57.579Z,174.38
2022-08-03T07:08:59.524Z,174.38
2022-08-03T07:09:58.263Z,163.12
2022-08-03T07:10:57.495Z,163.12
2022-08-03T07:11:57.537Z,174.38
2022-08-03T07:12:57.451Z,174.38
2022-08-03T07:13:57.440Z,168.75
2022-08-03T07:15:00.853Z,168.75
2022-08-03T07:15:57.440Z,168.75
2022-08-03T07:16:57.772Z,174.38
2022-08-03T07:17:57.444Z,174.38
2022-08-03T07:18:57.400Z,168.75
2022-08-03T07:19:57.402Z,174.38
2022-08-03T07:20:57.438Z,180.00
2022-08-03T07:22:02.297Z,180.00
2022-08-03T07:22:57.470Z,180.00
2022-08-03T07:23:57.391Z,180.00
2022-08-03T07:24:57.370Z,180.00
2022-08-03T07:25:57.362Z,180.00
2022-08-03T07:26:57.390Z,185.62
2022-08-03T07:27:57.461Z,185.62
2022-08-03T07:28:57.344Z,185.62
2022-08-03T07:29:57.339Z,185.62
2022-08-03T07:30:57.321Z,185.62
2022-08-03T07:31:57.325Z,185.62
2022-08-03T07:32:57.928Z,191.25
2022-08-03T07:33:57.321Z,191.25
2022-08-03T07:35:00.880Z,191.25
2022-08-03T07:35:57.290Z,191.25
2022-08-03T07:36:57.284Z,191.25
2022-08-03T07:37:58.070Z,191.25
2022-08-03T07:38:57.550Z,196.88
2022-08-03T07:39:57.280Z,196.88
2022-08-03T07:40:57.261Z,196.88
2022-08-03T07:41:57.258Z,208.12
2022-08-03T07:42:57.331Z,191.25
2022-08-03T07:43:57.701Z,202.50
2022-08-03T07:44:57.872Z,202.50
2022-08-03T07:45:57.600Z,202.50
2022-08-03T07:46:57.231Z,208.12
2022-08-03T07:47:57.231Z,208.12
2022-08-03T07:48:57.269Z,208.12
2022-08-03T07:49:57.220Z,213.75
2022-08-03T07:50:57.198Z,213.75
2022-08-03T07:51:57.190Z,219.38
2022-08-03T07:52:57.411Z,219.38
2022-08-03T07:53:57.483Z,225.00
2022-08-03T07:54:57.160Z,219.38
2022-08-03T07:55:57.163Z,225.00
2022-08-03T07:56:57.160Z,225.00
2022-08-03T07:57:57.160Z,236.25
2022-08-03T07:58:57.696Z,241.88
2022-08-03T08:00:01.992Z,241.88
2022-08-03T08:00:57.177Z,247.50
2022-08-03T08:01:57.121Z,247.50
2022-08-03T08:02:57.143Z,241.88
2022-08-03T08:03:57.283Z,241.88
2022-08-03T08:04:58.423Z,247.50
2022-08-03T08:05:57.251Z,241.88
2022-08-03T08:06:57.451Z,253.12
2022-08-03T08:07:57.122Z,253.12
2022-08-03T08:08:57.080Z,258.75
2022-08-03T08:09:57.592Z,258.75
2022-08-03T08:10:58.467Z,253.12
2022-08-03T08:11:57.050Z,247.50
2022-08-03T08:12:57.078Z,241.88
2022-08-03T08:13:57.041Z,236.25
2022-08-03T08:14:57.060Z,230.62
2022-08-03T08:15:57.916Z,225.00
2022-08-03T08:16:57.090Z,225.00
2022-08-03T08:17:57.051Z,225.00
2022-08-03T08:18:57.022Z,225.00
2022-08-03T08:19:57.037Z,236.25
2022-08-03T08:20:57.300Z,241.88
2022-08-03T08:22:02.561Z,247.50
2022-08-03T08:22:57.020Z,247.50
2022-08-03T08:23:57.889Z,247.50
2022-08-03T08:24:56.974Z,241.88
2022-08-03T08:25:56.960Z,241.88
2022-08-03T08:26:56.998Z,230.62
2022-08-03T08:28:30.710Z,213.75
2022-08-03T08:28:56.951Z,219.38
2022-08-03T08:30:02.506Z,225.00
2022-08-03T08:30:56.980Z,225.00
2022-08-03T08:31:56.920Z,208.12
2022-08-03T08:32:56.939Z,213.75
2022-08-03T08:34:04.934Z,225.00
2022-08-03T08:34:57.349Z,230.62
2022-08-03T08:35:56.900Z,230.62
2022-08-03T08:36:56.894Z,230.62
2022-08-03T08:37:56.920Z,225.00
2022-08-03T08:38:56.882Z,241.88
2022-08-03T08:39:56.871Z,247.50
2022-08-03T08:40:57.642Z,247.50
2022-08-03T08:41:56.861Z,241.88
2022-08-03T08:42:58.935Z,241.88
2022-08-03T08:43:59.963Z,247.50
2022-08-03T08:44:56.850Z,247.50
2022-08-03T08:45:57.181Z,258.75
2022-08-03T08:46:56.830Z,258.75
2022-08-03T08:48:00.853Z,264.38
2022-08-03T08:48:56.852Z,236.25
2022-08-03T08:50:09.242Z,241.88
2022-08-03T08:50:56.992Z,219.38
2022-08-03T08:52:00.429Z,196.88
2022-08-03T08:52:56.824Z,230.62
2022-08-03T08:53:56.801Z,236.25
2022-08-03T08:54:56.881Z,213.75
2022-08-03T08:56:00.008Z,236.25
2022-08-03T08:56:56.771Z,247.50
2022-08-03T08:57:56.762Z,253.12
2022-08-03T08:58:56.766Z,275.62
2022-08-03T08:59:57.458Z,298.12
2022-08-03T09:00:57.156Z,320.62
2022-08-03T09:01:57.032Z,337.50
2022-08-03T09:02:57.677Z,354.38
2022-08-03T09:03:56.744Z,371.25
2022-08-03T09:04:56.771Z,376.88
2022-08-03T09:05:56.728Z,371.25
2022-08-03T09:07:18.833Z,365.62
2022-08-03T09:07:56.705Z,360.00
2022-08-03T09:08:56.701Z,348.75
2022-08-03T09:10:10.162Z,315.00
2022-08-03T09:10:56.721Z,275.62
2022-08-03T09:12:13.726Z,241.88
2022-08-03T09:12:56.661Z,253.12
2022-08-03T09:13:56.672Z,253.12
2022-08-03T09:15:16.083Z,247.50
2022-08-03T09:16:00.907Z,264.38
2022-08-03T09:16:56.663Z,281.25
2022-08-03T09:17:56.631Z,298.12
2022-08-03T09:18:56.641Z,303.75
2022-08-03T09:20:02.869Z,309.38
2022-08-03T09:20:56.625Z,326.25
2022-08-03T09:21:56.632Z,337.50
2022-08-03T09:22:56.614Z,337.50
2022-08-03T09:24:02.739Z,320.62
2022-08-03T09:25:21.522Z,315.00
2022-08-03T09:25:56.571Z,303.75
2022-08-03T09:26:56.592Z,309.38
2022-08-03T09:27:56.802Z,298.12
2022-08-03T09:29:04.697Z,286.88
2022-08-03T09:29:56.693Z,270.00
2022-08-03T09:30:56.721Z,258.75
2022-08-03T09:31:56.542Z,247.50
2022-08-03T09:32:56.965Z,258.75
2022-08-03T09:33:56.782Z,286.88
2022-08-03T09:34:58.236Z,292.50
2022-08-03T09:35:57.856Z,292.50
2022-08-03T09:36:56.504Z,275.62
2022-08-03T09:38:13.418Z,253.12
2022-08-03T09:38:57.162Z,241.88
2022-08-03T09:39:57.339Z,230.62
2022-08-03T09:40:59.917Z,225.00
2022-08-03T09:41:56.514Z,219.38
2022-08-03T09:42:56.473Z,225.00
2022-08-03T09:43:56.542Z,230.62
2022-08-03T09:44:56.516Z,230.62
2022-08-03T09:45:56.502Z,225.00
2022-08-03T09:46:56.762Z,225.00
2022-08-03T09:47:56.432Z,236.25
2022-08-03T09:48:56.702Z,241.88
2022-08-03T09:49:56.733Z,247.50
2022-08-03T09:50:58.615Z,264.38
2022-08-03T09:52:32.567Z,270.00
2022-08-03T09:52:56.512Z,275.62
2022-08-03T09:53:59.535Z,270.00
2022-08-03T09:54:56.633Z,264.38
2022-08-03T09:56:33.753Z,258.75
2022-08-03T09:56:57.202Z,253.12
2022-08-03T09:57:56.383Z,258.75
2022-08-03T09:58:56.852Z,258.75
2022-08-03T10:00:04.416Z,258.75
2022-08-03T10:00:56.975Z,264.38
2022-08-03T10:01:57.325Z,281.25
2022-08-03T10:02:56.871Z,303.75
2022-08-03T10:04:04.190Z,326.25
2022-08-03T10:04:56.384Z,337.50
2022-08-03T10:05:59.792Z,348.75
2022-08-03T10:06:56.661Z,320.62
2022-08-03T10:07:56.303Z,326.25
2022-08-03T10:08:56.293Z,331.88
2022-08-03T10:09:56.322Z,309.38
2022-08-03T10:10:56.993Z,303.75
2022-08-03T10:11:56.325Z,275.62
2022-08-03T10:12:56.313Z,253.12
2022-08-03T10:14:01.088Z,241.88
2022-08-03T10:14:56.643Z,241.88
2022-08-03T10:16:21.711Z,258.75
2022-08-03T10:16:56.514Z,275.62
2022-08-03T10:17:56.256Z,270.00
2022-08-03T10:18:56.233Z,270.00
2022-08-03T10:19:56.369Z,270.00
2022-08-03T10:20:56.417Z,275.62
2022-08-03T10:21:56.216Z,275.62
2022-08-03T10:22:56.231Z,275.62
2022-08-03T10:23:56.223Z,281.25
2022-08-03T10:24:56.220Z,292.50
2022-08-03T10:25:56.193Z,298.12
2022-08-03T10:26:56.184Z,298.12
2022-08-03T10:27:56.185Z,298.12
2022-08-03T10:28:56.215Z,303.75
2022-08-03T10:29:56.223Z,303.75
2022-08-03T10:30:57.019Z,303.75
2022-08-03T10:31:58.373Z,303.75
2022-08-03T10:32:56.164Z,309.38
2022-08-03T10:33:56.134Z,315.00
2022-08-03T10:35:00.207Z,326.25
2022-08-03T10:35:56.192Z,337.50
2022-08-03T10:36:56.151Z,348.75
2022-08-03T10:37:57.014Z,365.62
2022-08-03T10:38:56.104Z,360.00
2022-08-03T10:39:56.346Z,371.25
2022-08-03T10:40:59.088Z,376.88
2022-08-03T10:41:56.083Z,354.38
2022-08-03T10:42:56.085Z,360.00
2022-08-03T10:43:56.103Z,360.00
2022-08-03T10:44:56.435Z,360.00
2022-08-03T10:45:56.245Z,354.38
2022-08-03T10:46:56.144Z,343.12
2022-08-03T10:47:56.045Z,343.12
2022-08-03T10:48:56.143Z,348.75
2022-08-03T10:49:56.080Z,354.38
2022-08-03T10:50:56.032Z,348.75
2022-08-03T10:51:56.385Z,371.25
2022-08-03T10:52:56.034Z,382.50
2022-08-03T10:53:56.181Z,393.75
2022-08-03T10:54:56.014Z,416.25
2022-08-03T10:55:56.005Z,433.12
2022-08-03T10:56:56.135Z,410.62
2022-08-03T10:57:58.314Z,450.00
2022-08-03T10:58:57.951Z,472.50
2022-08-03T10:59:55.994Z,511.88
2022-08-03T11:00:56.201Z,1440.00
2022-08-03T11:01:59.945Z,3223.12
2022-08-03T11:02:56.215Z,3549.38
2022-08-03T11:03:55.943Z,3532.50
2022-08-03T11:04:56.045Z,3240.00
2022-08-03T11:05:55.934Z,3110.62
2022-08-03T11:06:55.935Z,3341.25
2022-08-03T11:07:55.925Z,3678.75
2022-08-03T11:08:55.915Z,3960.00
2022-08-03T11:09:56.007Z,3903.75
2022-08-03T11:10:55.925Z,3661.88
2022-08-03T11:11:55.904Z,3712.50
2022-08-03T11:12:56.937Z,3723.75
2022-08-03T11:13:55.926Z,3510.00
2022-08-03T11:14:55.935Z,2902.50
2022-08-03T11:16:02.250Z,3088.12
2022-08-03T11:16:56.084Z,2908.12
2022-08-03T11:17:56.736Z,3285.00
2022-08-03T11:18:55.885Z,3217.50
2022-08-03T11:19:57.357Z,3144.38
2022-08-03T11:20:55.904Z,2705.62
2022-08-03T11:21:56.305Z,3240.00
2022-08-03T11:22:55.846Z,3510.00
2022-08-03T11:24:05.421Z,3470.62
2022-08-03T11:24:55.845Z,3487.50
2022-08-03T11:25:55.877Z,3290.62
2022-08-03T11:26:55.838Z,3521.25
2022-08-03T11:27:56.526Z,3397.50
2022-08-03T11:28:55.806Z,3999.38
2022-08-03T11:29:55.875Z,3217.50
2022-08-03T11:30:55.819Z,3082.50
2022-08-03T11:31:55.831Z,3650.62
2022-08-03T11:32:55.838Z,3898.12
2022-08-03T11:33:55.896Z,3639.38
2022-08-03T11:34:55.786Z,3909.38
2022-08-03T11:35:55.787Z,3673.12
2022-08-03T11:36:55.785Z,3622.50
2022-08-03T11:38:03.517Z,3813.75
2022-08-03T11:38:56.137Z,3808.12
2022-08-03T11:39:55.783Z,3133.12
2022-08-03T11:40:55.796Z,2266.88
2022-08-03T11:41:55.736Z,1473.75
2022-08-03T11:42:55.737Z,1996.88
2022-08-03T11:43:55.726Z,2491.88
2022-08-03T11:44:55.728Z,2604.38
2022-08-03T11:45:55.726Z,3515.62
2022-08-03T11:46:56.549Z,3785.62
2022-08-03T11:47:55.739Z,3825.00
2022-08-03T11:48:55.793Z,3650.62
2022-08-03T11:49:55.726Z,3763.12
2022-08-03T11:50:56.382Z,3740.62
2022-08-03T11:51:55.689Z,4252.50
2022-08-03T11:52:55.733Z,3965.62
2022-08-03T11:53:55.681Z,2806.88
2022-08-03T11:54:56.775Z,2840.62
2022-08-03T11:55:56.658Z,3043.12
2022-08-03T11:56:55.771Z,2666.25
2022-08-03T11:59:01.335Z,3791.25
2022-08-03T11:59:19.012Z,3802.50
2022-08-03T11:59:56.087Z,3976.88
2022-08-03T12:00:55.648Z,3948.75
2022-08-03T12:01:55.627Z,3870.00
2022-08-03T12:02:55.669Z,3082.50
2022-08-03T12:03:56.037Z,3611.25
2022-08-03T12:04:55.678Z,4095.00
2022-08-03T12:05:55.646Z,3757.50
2022-08-03T12:06:55.638Z,3628.12
2022-08-03T12:08:03.714Z,3493.12
2022-08-03T12:08:56.076Z,4123.12
2022-08-03T12:09:55.665Z,4224.38
2022-08-03T12:10:55.708Z,2025.00
2022-08-03T12:12:00.757Z,1338.75
2022-08-03T12:12:55.579Z,1271.25
2022-08-03T12:14:36.707Z,1372.50
2022-08-03T12:14:55.557Z,2137.50
2022-08-03T12:15:55.576Z,3498.75
2022-08-03T12:16:55.546Z,3521.25
2022-08-03T12:17:57.851Z,3937.50
2022-08-03T12:18:55.549Z,4055.62
2022-08-03T12:19:55.537Z,4050.00
2022-08-03T12:20:55.559Z,3903.75
2022-08-03T12:21:57.298Z,4027.50
2022-08-03T12:22:55.528Z,3808.12
2022-08-03T12:23:55.513Z,3971.25
2022-08-03T12:24:55.508Z,3982.50
2022-08-03T12:25:55.607Z,3712.50
2022-08-03T12:26:59.368Z,3723.75
2022-08-03T12:27:55.599Z,3127.50
2022-08-03T12:28:55.490Z,4241.25
2022-08-03T12:29:57.233Z,2964.38
2022-08-03T12:30:55.567Z,3791.25
2022-08-03T12:31:55.961Z,3121.88
2022-08-03T12:32:56.881Z,3864.38
2022-08-03T12:33:55.486Z,1929.38
2022-08-03T12:34:55.470Z,3166.88
2022-08-03T12:35:55.482Z,1777.50
2022-08-03T12:36:55.486Z,3296.25
2022-08-03T12:37:55.758Z,1468.12
2022-08-03T12:38:55.594Z,1625.62
2022-08-03T12:40:02.620Z,961.88
2022-08-03T12:40:55.438Z,1113.75
2022-08-03T12:41:55.467Z,1676.25